Plan B — ZGCC2 — position and weather

sailwx.info

Track history (hours):
 
Tides and Currents Weather Stations Pressure Air Temp Water Temp Dewpoint Dewpoint Depression Visibility Wind Speed Wind Dir Waves Ship Positions

Plan B

Last reported at 2017-Jul-10 13:55 UTC. Time now 2017-Jul-20 20:30 UTC.
Position N 35°14' E 029°17'.
Warning: this ship's position is 10 days out of date.

Length 73 m; draft 3.6 m.

Type: Pleasure craft. MMSI: 319618000.

Date/timePositionNaut miles runAvg speedWind from/ knotsBaromVisibWave heightAir tempDewpointWater temp
2017-Jul-10 13:55N 35°14' E 029°17'1415.0
2017-Jul-10 12:59N 35°02' E 029°26'715.0
2017-Jul-10 12:30N 34°56' E 029°31'1314.8
2017-Jul-10 11:37N 34°45' E 029°40'314.7
2017-Jul-10 11:25N 34°43' E 029°42'614.6
2017-Jul-10 11:00N 34°38' E 029°46'3214.9
2017-Jul-10 08:50N 34°11' E 030°09'1715.0
2017-Jul-10 07:42N 33°57' E 030°20'2714.8
2017-Jul-10 05:52N 33°33' E 030°37'514.8
2017-Jul-10 05:30N 33°29' E 030°40'714.7
2017-Jul-10 05:00N 33°23' E 030°44'714.7
2017-Jul-10 04:30N 33°16' E 030°49'714.8
2017-Jul-10 04:00N 33°10' E 030°53'714.8
2017-Jul-10 03:30N 33°04' E 030°58'714.9
2017-Jul-10 03:00N 32°57' E 031°02'1015.0
2017-Jul-10 02:20N 32°48' E 031°08'515.0
2017-Jul-10 02:00N 32°44' E 031°11'714.9
2017-Jul-10 01:30N 32°38' E 031°16'714.9
2017-Jul-10 01:00N 32°32' E 031°21'815.2
2017-Jul-10 00:30N 32°25' E 031°26'1415.6
2017-Jul-09 23:36N 32°13' E 031°35'215.7
2017-Jul-09 23:28N 32°12' E 031°36'715.5
2017-Jul-09 23:00N 32°06' E 031°41'915.3
2017-Jul-09 22:26N 31°58' E 031°46'615.2
2017-Jul-09 22:00N 31°53' E 031°51'815.2
2017-Jul-09 21:30N 31°48' E 031°57'714.9
2017-Jul-09 21:00N 31°42' E 032°03'714.8
2017-Jul-09 20:30N 31°37' E 032°09'714.7
2017-Jul-09 20:00N 31°31' E 032°14'97 4.8
2017-Jul-08 23:43N 29°55' E 032°32'  
Track history (hours):
 
Tides and Currents Weather Stations Pressure Air Temp Water Temp Dewpoint Dewpoint Depression Visibility Wind Speed Wind Dir Waves Ship Positions

Plan B

Last reported at 2017-Jul-10 13:55 UTC. Time now 2017-Jul-20 20:30 UTC.
Position N 35°14' E 029°17'.
Warning: this ship's position is 10 days out of date.

Length 73 m; draft 3.6 m.

Type: Pleasure craft. MMSI: 319618000.

Date/timePositionNaut miles runAvg speedWind from/ knotsBaromVisibWave heightAir tempDewpointWater temp
2017-Jul-10 13:55N 35°14' E 029°17'1415.0
2017-Jul-10 12:59N 35°02' E 029°26'715.0
2017-Jul-10 12:30N 34°56' E 029°31'1314.8
2017-Jul-10 11:37N 34°45' E 029°40'314.7
2017-Jul-10 11:25N 34°43' E 029°42'614.6
2017-Jul-10 11:00N 34°38' E 029°46'3214.9
2017-Jul-10 08:50N 34°11' E 030°09'1715.0
2017-Jul-10 07:42N 33°57' E 030°20'2714.8
2017-Jul-10 05:52N 33°33' E 030°37'514.8
2017-Jul-10 05:30N 33°29' E 030°40'714.7
2017-Jul-10 05:00N 33°23' E 030°44'714.7
2017-Jul-10 04:30N 33°16' E 030°49'714.8
2017-Jul-10 04:00N 33°10' E 030°53'714.8
2017-Jul-10 03:30N 33°04' E 030°58'714.9
2017-Jul-10 03:00N 32°57' E 031°02'1015.0
2017-Jul-10 02:20N 32°48' E 031°08'515.0
2017-Jul-10 02:00N 32°44' E 031°11'714.9
2017-Jul-10 01:30N 32°38' E 031°16'714.9
2017-Jul-10 01:00N 32°32' E 031°21'815.2
2017-Jul-10 00:30N 32°25' E 031°26'1415.6
2017-Jul-09 23:36N 32°13' E 031°35'215.7
2017-Jul-09 23:28N 32°12' E 031°36'715.5
2017-Jul-09 23:00N 32°06' E 031°41'915.3
2017-Jul-09 22:26N 31°58' E 031°46'615.2
2017-Jul-09 22:00N 31°53' E 031°51'815.2
2017-Jul-09 21:30N 31°48' E 031°57'714.9
2017-Jul-09 21:00N 31°42' E 032°03'714.8
2017-Jul-09 20:30N 31°37' E 032°09'714.7
2017-Jul-09 20:00N 31°31' E 032°14'97 4.8
2017-Jul-08 23:43N 29°55' E 032°32'  

Dump ship's entire track history